Time;durP1;ratioP1;P1;durP2;ratioP2;P2;SDS_P1;SDS_P2;PMS_P1;PMS_P2;Temp;Humidity;BMP_temperature;BMP_pressure;BME280_temperature;BME280_humidity;BME280_pressure;Samples;Min_cycle;Max_cycle;Signal;HPM_P1;HPM_P2
2022/02/02 00:02:15;;;;;;;116.28;51.28;;;;;;;1.44;97.74;99498.17;1681583;85;21212;-89
2022/02/02 00:08:33;;;;;;;107.72;44.03;;;;;;;1.27;98.83;99475.92;1691554;85;21840;-88
2022/02/02 00:15:00;;;;;;;104.75;47.48;;;;;;;1.23;99.50;99478.06;1678512;83;21880;-76
2022/02/02 00:18:13;;;;;;;99.45;47.00;;;;;;;1.17;99.72;99475.05;1676945;85;21852;-76
2022/02/02 00:21:11;;;;;;;122.98;58.50;;;;;;;1.11;100.00;99479.14;1691339;85;21843;-89
2022/02/02 00:24:23;;;;;;;114.52;58.48;;;;;;;1.05;100.00;99474.31;1692120;85;21427;-89
2022/02/02 00:27:22;;;;;;;126.80;61.33;;;;;;;0.99;100.00;99481.09;1690672;85;21390;-77
2022/02/02 00:30:28;;;;;;;112.15;52.53;;;;;;;0.86;100.00;99477.77;1691679;85;21298;-76
2022/02/02 00:33:40;;;;;;;117.25;50.20;;;;;;;0.77;100.00;99469.16;1691239;85;21316;-90
2022/02/02 00:36:48;;;;;;;120.47;54.03;;;;;;;0.82;100.00;99474.14;1691190;85;21381;-76
2022/02/02 00:39:49;;;;;;;115.35;49.05;;;;;;;0.85;100.00;99465.77;1691533;85;21833;-90
2022/02/02 00:42:54;;;;;;;99.70;46.85;;;;;;;0.91;100.00;99445.05;1690087;85;21354;-77
2022/02/02 00:46:00;;;;;;;108.70;52.50;;;;;;;0.98;100.00;99448.89;1689707;85;21347;-77
2022/02/02 00:49:06;;;;;;;125.45;56.58;;;;;;;1.05;100.00;99455.45;1691990;85;21372;-77
2022/02/02 00:52:12;;;;;;;121.72;55.88;;;;;;;1.13;100.00;99451.59;1691261;85;21230;-77
2022/02/02 00:55:17;;;;;;;110.42;51.08;;;;;;;1.17;100.00;99448.95;1691588;85;21844;-77
2022/02/02 00:58:22;;;;;;;113.20;50.10;;;;;;;1.16;100.00;99436.98;1691738;85;21269;-90
2022/02/02 01:01:27;;;;;;;100.22;48.55;;;;;;;1.09;100.00;99431.80;1691470;85;21364;-90
2022/02/02 01:04:36;;;;;;;113.15;52.48;;;;;;;1.08;100.00;99430.92;1690222;85;21216;-89
2022/02/02 01:11:02;;;;;;;90.30;46.75;;;;;;;1.14;100.00;99425.00;1691663;85;21829;-89
2022/02/02 01:15:01;;;;;;;107.80;51.65;;;;;;;1.20;100.00;99422.25;1696832;83;21307;-90
2022/02/02 01:20:52;;;;;;;110.60;50.85;;;;;;;1.25;100.00;99422.69;1701727;84;21815;-90
2022/02/02 01:30:43;;;;;;;102.78;44.70;;;;;;;1.30;100.00;99410.14;1702369;82;21209;-78
2022/02/02 01:33:49;;;;;;;111.57;52.55;;;;;;;1.28;100.00;99402.21;1702303;84;21332;-91
2022/02/02 01:36:55;;;;;;;106.35;49.42;;;;;;;1.25;100.00;99403.83;1702550;84;21888;-91
2022/02/02 01:40:06;;;;;;;110.83;51.80;;;;;;;1.25;100.00;99392.55;1703694;84;21261;-88
2022/02/02 01:43:18;;;;;;;86.80;42.38;;;;;;;1.27;100.00;99387.89;1702892;84;21814;-91
2022/02/02 01:46:21;;;;;;;102.05;45.25;;;;;;;1.26;100.00;99387.51;1700301;84;21360;-91
2022/02/02 01:53:10;;;;;;;100.35;49.63;;;;;;;1.13;100.00;99373.48;1737259;82;21788;-88
2022/02/02 01:56:10;;;;;;;98.33;46.05;;;;;;;1.20;100.00;99370.56;1739059;82;21189;-77
2022/02/02 02:02:20;;;;;;;96.10;43.33;;;;;;;1.19;100.00;99368.87;1769558;81;21338;-77
2022/02/02 02:05:26;;;;;;;100.47;46.58;;;;;;;1.18;100.00;99365.83;1770804;81;21267;-90
2022/02/02 02:08:31;;;;;;;104.55;46.40;;;;;;;1.16;100.00;99361.56;1771460;81;21173;-90
2022/02/02 02:11:42;;;;;;;107.27;49.33;;;;;;;1.09;100.00;99357.23;1770167;81;21157;-77
2022/02/02 02:14:55;;;;;;;91.42;42.33;;;;;;;1.02;100.00;99350.19;1769242;81;21176;-90
2022/02/02 02:17:59;;;;;;;97.05;45.33;;;;;;;1.01;100.00;99347.14;1771407;81;21289;-89
2022/02/02 02:21:10;;;;;;;91.75;42.17;;;;;;;1.03;100.00;99348.34;1771179;81;22085;-89
2022/02/02 02:24:12;;;;;;;83.22;37.70;;;;;;;0.99;100.00;99346.95;1769627;81;21280;-87
2022/02/02 02:27:20;;;;;;;98.95;45.38;;;;;;;0.96;100.00;99349.91;1769920;81;21781;-89
2022/02/02 02:30:42;;;;;;;82.17;40.43;;;;;;;0.94;100.00;99342.44;1746038;81;21335;-76
2022/02/02 02:37:04;;;;;;;98.70;45.90;;;;;;;0.94;100.00;99349.17;1738574;82;21324;-90
2022/02/02 02:40:13;;;;;;;95.77;46.18;;;;;;;0.96;100.00;99345.87;1739366;82;21177;-89
2022/02/02 02:56:41;;;;;;;80.80;40.08;;;;;;;1.26;100.00;99323.34;1708335;84;22604;-76
2022/02/02 03:00:04;;;;;;;80.17;38.15;;;;;;;1.20;100.00;99326.12;1722706;82;21901;-89
2022/02/02 03:30:07;;;;;;;82.55;36.10;;;;;;;1.14;100.00;99321.30;1726696;82;21285;-88
2022/02/02 03:56:43;;;;;;;102.25;50.00;;;;;;;0.69;100.00;99319.58;1737192;82;21323;-77
2022/02/02 04:06:24;;;;;;;89.05;41.75;;;;;;;0.80;100.00;99325.33;1729135;83;21320;-76
2022/02/02 04:09:34;;;;;;;102.00;40.38;;;;;;;0.80;100.00;99322.64;1719756;83;21772;-90
2022/02/02 04:12:50;;;;;;;86.92;35.55;;;;;;;0.84;100.00;99321.38;1728682;82;21197;-77
2022/02/02 04:59:05;;;;;;;51.28;20.85;;;;;;;1.71;100.00;99305.25;1713372;82;21818;-89
2022/02/02 05:08:47;;;;;;;43.48;19.62;;;;;;;1.58;100.00;99311.44;1703093;84;22231;-89
2022/02/02 05:40:54;;;;;;;50.90;20.48;;;;;;;1.95;100.00;99318.27;1742562;82;21608;-90
2022/02/02 05:51:49;;;;;;;29.85;13.10;;;;;;;1.62;100.00;99340.66;1709507;84;21231;-89
2022/02/02 05:54:39;;;;;;;21.95;12.15;;;;;;;1.54;100.00;99338.67;1712143;84;21272;-77
2022/02/02 05:57:47;;;;;;;26.87;13.75;;;;;;;1.50;100.00;99343.98;1713102;84;21311;-90
2022/02/02 06:00:52;;;;;;;27.73;12.88;;;;;;;1.48;100.00;99343.79;1697617;84;21322;-77
2022/02/02 06:04:04;;;;;;;26.33;12.90;;;;;;;1.47;100.00;99344.29;1683196;84;21318;-90
2022/02/02 06:07:09;;;;;;;27.35;12.78;;;;;;;1.47;100.00;99343.44;1691331;85;21323;-90
2022/02/02 06:10:18;;;;;;;26.05;13.15;;;;;;;1.49;100.00;99333.36;1697154;83;21169;-89
2022/02/02 06:13:38;;;;;;;26.25;11.20;;;;;;;1.53;100.00;99338.82;1717202;83;21247;-75
2022/02/02 06:16:36;;;;;;;35.05;12.95;;;;;;;1.60;100.00;99336.39;1711484;84;21884;-87
2022/02/02 06:19:41;;;;;;;24.02;12.33;;;;;;;1.62;100.00;99339.31;1712036;83;21192;-75
2022/02/02 06:23:01;;;;;;;26.60;12.37;;;;;;;1.64;100.00;99326.53;1710571;84;21623;-89
2022/02/02 06:26:06;;;;;;;21.67;11.53;;;;;;;1.67;100.00;99332.99;1669634;86;21358;-88
2022/02/02 06:29:18;;;;;;;29.55;12.78;;;;;;;1.75;100.00;99327.74;1703355;83;21271;-76
2022/02/02 06:32:24;;;;;;;23.90;11.12;;;;;;;1.82;100.00;99319.06;1677341;83;21775;-89
2022/02/02 06:35:29;;;;;;;20.02;10.75;;;;;;;1.85;100.00;99320.14;1690897;83;21338;-77
2022/02/02 06:38:38;;;;;;;26.65;11.93;;;;;;;1.85;100.00;99320.98;1696108;83;21782;-77
2022/02/02 06:41:44;;;;;;;33.50;13.22;;;;;;;1.85;100.00;99318.79;1690087;83;21383;-76
2022/02/02 06:44:50;;;;;;;23.57;11.53;;;;;;;1.81;100.00;99317.38;1699335;83;21650;-76
2022/02/02 06:47:56;;;;;;;27.67;11.93;;;;;;;1.81;100.00;99318.72;1685232;84;21299;-77
2022/02/02 06:51:20;;;;;;;23.52;12.47;;;;;;;1.76;100.00;99323.20;1682795;84;21382;-90
2022/02/02 06:54:28;;;;;;;22.48;10.65;;;;;;;1.74;100.00;99319.78;1700286;83;21319;-89
2022/02/02 06:58:03;;;;;;;30.50;11.30;;;;;;;1.77;100.00;99317.65;1730666;82;21946;-89
2022/02/02 07:04:24;;;;;;;25.75;10.72;;;;;;;1.84;100.00;99326.53;1708156;84;22234;-88
2022/02/02 07:10:42;;;;;;;33.20;13.72;;;;;;;1.94;100.00;99334.95;1717822;82;21300;-89
2022/02/02 07:17:09;;;;;;;29.48;12.25;;;;;;;1.98;100.00;99331.47;1708526;83;21323;-88
2022/02/02 07:20:13;;;;;;;22.27;11.90;;;;;;;2.01;100.00;99333.36;1709808;83;21367;-88
2022/02/02 07:23:26;;;;;;;24.45;11.38;;;;;;;2.05;100.00;99329.87;1710283;82;21243;-77
2022/02/02 07:33:15;;;;;;;20.88;10.68;;;;;;;2.10;100.00;99336.19;1734631;81;21216;-76
2022/02/02 07:36:21;;;;;;;25.05;12.05;;;;;;;2.10;100.00;99331.63;1710273;82;22238;-78
2022/02/02 07:39:20;;;;;;;28.20;14.80;;;;;;;2.16;100.00;99335.09;1709532;82;21358;-77
2022/02/02 07:42:26;;;;;;;33.15;19.80;;;;;;;2.13;100.00;99335.91;1714602;83;21284;-76
2022/02/02 07:45:32;;;;;;;31.37;14.25;;;;;;;2.04;100.00;99331.73;1728586;81;21323;-88
2022/02/02 07:48:39;;;;;;;22.65;11.35;;;;;;;1.97;100.00;99332.44;1708250;83;21364;-88
2022/02/02 07:51:45;;;;;;;33.08;11.83;;;;;;;1.93;100.00;99333.25;1727374;82;21298;-88
2022/02/02 07:54:53;;;;;;;20.70;10.43;;;;;;;1.96;100.00;99333.45;1702891;82;21303;-89
2022/02/02 07:57:59;;;;;;;26.97;11.38;;;;;;;2.00;100.00;99328.11;1677946;85;21166;-88
2022/02/02 08:01:04;;;;;;;31.33;15.55;;;;;;;1.99;100.00;99326.42;1704507;82;22225;-88
2022/02/02 08:04:12;;;;;;;25.75;12.50;;;;;;;1.98;100.00;99334.17;1675120;84;21581;-88
2022/02/02 08:07:25;;;;;;;31.20;14.15;;;;;;;2.00;100.00;99331.66;1677176;85;21221;-89
2022/02/02 08:10:28;;;;;;;27.65;12.18;;;;;;;2.06;100.00;99336.97;1697482;83;22185;-88
2022/02/02 08:13:38;;;;;;;26.12;13.22;;;;;;;2.08;100.00;99336.34;1695703;83;21328;-88
2022/02/02 08:16:41;;;;;;;17.67;11.78;;;;;;;2.04;100.00;99344.37;1699253;83;21324;-88
2022/02/02 08:19:46;;;;;;;31.75;12.70;;;;;;;1.96;100.00;99345.58;1693905;83;21910;-88
2022/02/02 08:22:56;;;;;;;33.15;13.05;;;;;;;1.87;100.00;99346.45;1678452;84;21785;-88
2022/02/02 08:26:05;;;;;;;28.77;14.33;;;;;;;1.82;100.00;99332.55;1677181;84;21335;-90
2022/02/02 08:29:10;;;;;;;29.72;17.50;;;;;;;1.79;100.00;99318.88;1692501;83;21310;-89
2022/02/02 08:32:16;;;;;;;71.87;57.15;;;;;;;1.85;100.00;99317.44;1702035;83;21661;-89
2022/02/02 08:35:23;;;;;;;34.60;25.23;;;;;;;1.89;100.00;99312.96;1685903;83;21340;-89
2022/02/02 08:41:39;;;;;;;24.07;13.25;;;;;;;2.14;100.00;99320.06;1683427;83;21854;-88
2022/02/02 08:44:50;;;;;;;23.40;12.82;;;;;;;2.24;100.00;99323.07;1679795;83;21274;-90
2022/02/02 08:47:58;;;;;;;29.87;13.78;;;;;;;2.36;100.00;99309.41;1691102;83;21390;-89
2022/02/02 08:51:07;;;;;;;28.55;16.20;;;;;;;2.39;100.00;99295.60;1690849;83;21291;-88
2022/02/02 09:00:26;;;;;;;42.53;27.60;;;;;;;2.50;100.00;99285.98;1723215;81;21311;-87
2022/02/02 09:06:54;;;;;;;37.00;21.42;;;;;;;2.68;99.70;99280.12;1698179;84;21275;-87
2022/02/02 09:10:13;;;;;;;29.55;18.30;;;;;;;2.72;98.92;99284.20;1693816;83;21250;-87
2022/02/02 09:20:09;;;;;;;24.67;11.65;;;;;;;3.10;98.16;99289.50;1705604;83;21257;-87
2022/02/02 09:23:30;;;;;;;27.25;13.93;;;;;;;3.18;97.66;99274.73;1701841;84;21148;-88
2022/02/02 09:33:49;;;;;;;28.42;16.57;;;;;;;3.12;96.80;99257.28;1729157;82;21893;-87
2022/02/02 09:36:26;;;;;;;26.77;16.62;;;;;;;3.15;96.66;99256.11;1724641;82;21568;-87
2022/02/02 09:39:49;;;;;;;24.65;13.95;;;;;;;3.13;96.38;99244.11;1726029;82;21219;-87
2022/02/02 09:42:38;;;;;;;29.77;17.17;;;;;;;3.12;96.15;99248.33;1697379;83;21272;-87
2022/02/02 09:45:46;;;;;;;22.73;14.78;;;;;;;3.15;96.32;99238.55;1724547;82;21829;-88
2022/02/02 09:48:55;;;;;;;39.58;30.32;;;;;;;3.15;96.20;99233.98;1723886;82;21276;-87
2022/02/02 09:52:07;;;;;;;29.30;17.42;;;;;;;3.13;95.95;99229.25;1689851;84;21372;-87
2022/02/02 09:55:21;;;;;;;34.25;24.32;;;;;;;3.18;96.21;99225.58;1705538;83;21704;-86
2022/02/02 10:02:13;;;;;;;25.52;15.35;;;;;;;3.23;96.14;99225.11;1709903;82;21308;-87
2022/02/02 10:05:09;;;;;;;28.20;18.07;;;;;;;3.24;96.62;99210.08;1708032;82;21837;-87
2022/02/02 10:14:52;;;;;;;38.13;26.77;;;;;;;3.54;96.69;99204.76;1723587;82;21224;-86
2022/02/02 10:17:54;;;;;;;50.45;33.30;;;;;;;3.69;96.12;99206.38;1694913;83;21629;-86
2022/02/02 10:21:00;;;;;;;47.75;28.12;;;;;;;3.80;95.68;99196.62;1708204;82;21490;-87
2022/02/02 10:24:06;;;;;;;40.98;22.93;;;;;;;3.88;95.22;99194.48;1716551;83;21245;-76
2022/02/02 10:27:12;;;;;;;41.77;24.90;;;;;;;3.92;94.67;99186.39;1712756;82;21328;-76
2022/02/02 10:30:20;;;;;;;43.87;27.65;;;;;;;3.98;94.40;99180.83;1693018;84;21197;-76
2022/02/02 10:33:30;;;;;;;41.90;28.02;;;;;;;4.00;94.07;99170.20;1714795;83;21799;-77
2022/02/02 10:36:36;;;;;;;48.87;28.60;;;;;;;4.01;93.77;99162.42;1694671;84;21319;-76
2022/02/02 10:39:53;;;;;;;69.85;48.85;;;;;;;4.05;93.13;99172.42;1727524;82;21177;-75
2022/02/02 10:43:00;;;;;;;66.22;36.70;;;;;;;4.00;92.68;99173.39;1713110;82;21356;-76
2022/02/02 10:46:17;;;;;;;65.72;38.75;;;;;;;3.95;92.55;99173.91;1692987;84;21302;-76
2022/02/02 10:49:37;;;;;;;77.80;51.20;;;;;;;3.95;92.75;99165.79;1682380;84;21159;-76
2022/02/02 10:52:47;;;;;;;71.87;42.62;;;;;;;3.99;92.76;99163.08;1718403;83;21307;-86
2022/02/02 10:56:01;;;;;;;;;;;;;;;4.05;92.64;99155.68;1700294;83;21699;-75
2022/02/02 11:08:35;;;;;;;79.60;39.78;;;;;;;4.08;92.66;99168.02;1711629;82;21892;-88
2022/02/02 11:11:41;;;;;;;57.65;32.50;;;;;;;3.98;93.21;99179.48;1736743;82;21266;-88
2022/02/02 11:15:07;;;;;;;49.80;25.95;;;;;;;3.98;93.68;99170.02;1714232;83;21599;-87
2022/02/02 11:18:25;;;;;;;37.15;19.37;;;;;;;3.99;93.45;99165.78;1699120;83;21271;-87
2022/02/02 11:21:38;;;;;;;27.60;16.97;;;;;;;3.96;93.01;99169.34;1718923;83;21229;-75
2022/02/02 11:24:45;;;;;;;21.80;15.65;;;;;;;3.96;92.94;99157.16;1723646;83;21300;-76
2022/02/02 11:27:53;;;;;;;26.55;17.70;;;;;;;3.93;92.70;99152.06;1734460;82;21212;-76
2022/02/02 11:31:00;;;;;;;28.60;17.80;;;;;;;3.83;92.81;99150.33;1735848;82;21343;-87
2022/02/02 11:34:06;;;;;;;27.73;17.12;;;;;;;3.77;93.17;99151.49;1723835;82;21295;-88
2022/02/02 11:37:12;;;;;;;23.57;16.67;;;;;;;3.75;93.58;99152.14;1721688;83;21260;-76
2022/02/02 11:40:20;;;;;;;25.70;17.00;;;;;;;3.76;93.93;99146.56;1719189;82;21165;-75
2022/02/02 11:43:25;;;;;;;28.47;17.73;;;;;;;3.78;94.25;99147.77;1723479;83;21423;-87
2022/02/02 11:46:20;;;;;;;25.12;16.50;;;;;;;3.78;94.57;99144.56;1717253;83;22215;-87
2022/02/02 11:49:13;;;;;;;27.15;16.32;;;;;;;3.79;94.82;99139.48;1702095;83;21306;-86
2022/02/02 11:52:03;;;;;;;22.20;15.20;;;;;;;3.80;94.89;99134.41;1718179;83;21277;-75
2022/02/02 11:54:52;;;;;;;22.85;15.78;;;;;;;3.80;94.79;99134.41;1742987;80;21944;-86
2022/02/02 11:58:20;;;;;;;25.17;15.48;;;;;;;3.81;94.85;99137.48;1731463;80;21813;-86
2022/02/02 12:01:46;;;;;;;24.75;16.30;;;;;;;3.83;94.86;99135.45;1715750;83;21806;-86
2022/02/02 12:05:21;;;;;;;25.25;16.32;;;;;;;3.83;95.12;99135.95;1711222;83;21308;-86
2022/02/02 12:09:30;;;;;;;20.92;14.33;;;;;;;3.84;95.06;99141.20;1718578;83;21229;-87
2022/02/02 12:44:37;;;;;;;30.32;18.02;;;;;;;3.73;95.41;99152.31;1664101;83;21217;-77
2022/02/02 12:56:15;;;;;;;30.82;16.25;;;;;;;3.58;97.16;99155.27;1765270;81;21246;-87
2022/02/02 13:02:37;;;;;;;22.98;15.28;;;;;;;3.45;97.68;99150.28;1690437;84;21877;-88
2022/02/02 13:05:47;;;;;;;22.82;14.45;;;;;;;3.46;98.10;99153.83;1698017;83;21298;-87
2022/02/02 13:08:54;;;;;;;19.90;13.58;;;;;;;3.48;98.19;99153.16;1718021;81;21295;-88
2022/02/02 13:11:58;;;;;;;22.07;15.23;;;;;;;3.50;98.27;99152.00;1711392;83;21605;-88
2022/02/02 13:15:21;;;;;;;20.85;14.55;;;;;;;3.54;98.35;99144.43;1712292;83;21182;-85
2022/02/02 13:21:31;;;;;;;18.90;13.68;;;;;;;3.61;98.09;99147.33;1692774;83;21350;-85
2022/02/02 13:24:40;;;;;;;20.88;14.43;;;;;;;3.65;97.99;99139.24;1706526;81;21922;-74
2022/02/02 13:27:57;;;;;;;19.70;14.25;;;;;;;3.64;97.89;99137.05;1706410;83;21875;-74
2022/02/02 13:31:02;;;;;;;21.25;15.00;;;;;;;3.61;97.82;99140.06;1718173;83;21320;-86
2022/02/02 13:34:37;;;;;;;24.40;14.38;;;;;;;3.61;97.93;99140.06;1706349;83;21304;-85
2022/02/02 13:45:12;;;;;;;22.50;15.50;;;;;;;3.55;97.99;99136.66;1719179;83;21283;-86
2022/02/02 13:54:48;;;;;;;26.07;15.65;;;;;;;3.50;98.63;99150.65;1709735;83;21210;-86
2022/02/02 13:58:06;;;;;;;23.02;15.78;;;;;;;3.46;98.71;99147.91;1711495;83;21287;-86
2022/02/02 14:01:16;;;;;;;21.82;14.10;;;;;;;3.41;98.82;99145.35;1747760;81;21811;-86
2022/02/02 14:31:17;;;;;;;20.08;14.05;;;;;;;2.73;100.00;99140.10;1748606;82;21295;-87
2022/02/02 14:34:19;;;;;;;21.35;14.53;;;;;;;2.70;100.00;99148.50;1747516;82;21399;-85
2022/02/02 14:37:29;;;;;;;23.77;13.83;;;;;;;2.68;100.00;99146.95;1747385;82;21232;-75
2022/02/02 14:40:44;;;;;;;30.60;16.02;;;;;;;2.66;100.00;99146.27;1748242;82;21166;-76
2022/02/02 14:43:52;;;;;;;28.95;16.60;;;;;;;2.60;100.00;99147.73;1748186;80;21248;-87
2022/02/02 14:47:08;;;;;;;51.13;21.97;;;;;;;2.56;100.00;99144.98;1780551;80;21832;-76
2022/02/02 14:50:51;;;;;;;48.98;21.12;;;;;;;2.53;100.00;99147.48;1781371;80;21339;-75
2022/02/02 14:53:38;;;;;;;45.80;21.90;;;;;;;2.51;100.00;99149.50;1781494;80;21290;-75
2022/02/02 15:07:23;;;;;;;36.03;23.02;;;;;;;2.45;100.00;99150.62;1671397;80;21323;-86
2022/02/02 15:09:53;;;;;;;50.12;30.90;;;;;;;2.46;100.00;99148.27;1777924;80;21168;-86
2022/02/02 15:27:14;;;;;;;35.70;20.62;;;;;;;2.56;100.00;99162.54;1746935;82;22177;-76
2022/02/02 15:32:47;;;;;;;28.40;19.92;;;;;;;2.55;100.00;99168.44;1778144;80;21310;-86
2022/02/02 15:35:56;;;;;;;34.08;21.77;;;;;;;2.55;100.00;99175.69;1779124;80;21307;-86
2022/02/02 15:38:58;;;;;;;29.75;19.37;;;;;;;2.57;100.00;99175.03;1779299;80;21258;-85
2022/02/02 15:42:23;;;;;;;30.70;18.52;;;;;;;2.58;100.00;99179.42;1777730;80;21712;-74
2022/02/02 15:55:48;;;;;;;25.70;17.55;;;;;;;2.52;100.00;99174.13;1777909;80;21307;-86
2022/02/02 15:58:29;;;;;;;30.48;18.27;;;;;;;2.51;100.00;99175.65;1778036;80;21296;-87
2022/02/02 16:04:58;;;;;;;25.80;17.23;;;;;;;2.52;100.00;99174.64;1752936;82;21650;-81
2022/02/02 16:08:08;;;;;;;26.93;16.55;;;;;;;2.50;100.00;99169.91;1753789;82;22187;-87
2022/02/02 16:11:26;;;;;;;30.68;18.30;;;;;;;2.50;100.00;99172.10;1753434;82;21375;-87
2022/02/02 16:14:29;;;;;;;27.25;19.00;;;;;;;2.51;100.00;99172.95;1762818;80;21318;-87
2022/02/02 16:17:47;;;;;;;31.20;19.37;;;;;;;2.51;100.00;99171.09;1783623;80;21349;-87
2022/02/02 16:34:44;;;;;;;36.00;23.60;;;;;;;2.72;100.00;99168.09;1783544;80;21326;-87
2022/02/02 16:37:37;;;;;;;32.75;21.07;;;;;;;2.78;100.00;99171.54;1782616;80;21335;-75
2022/02/02 16:40:42;;;;;;;32.45;21.20;;;;;;;2.80;100.00;99177.63;1783892;80;21786;-88
2022/02/02 16:43:46;;;;;;;41.08;22.00;;;;;;;2.84;100.00;99175.47;1783405;80;21546;-76
2022/02/02 16:46:57;;;;;;;47.20;22.02;;;;;;;2.90;100.00;99172.64;1782757;80;21334;-75
2022/02/02 16:49:59;;;;;;;49.73;25.12;;;;;;;2.89;100.00;99168.25;1783601;80;21488;-85
2022/02/02 16:53:21;;;;;;;52.13;25.85;;;;;;;2.83;100.00;99164.33;1782079;80;21307;-87
2022/02/02 16:56:39;;;;;;;42.17;21.25;;;;;;;2.84;100.00;99166.52;1782174;80;21203;-87
2022/02/02 17:30:09;;;;;;;48.92;23.22;;;;;;;2.51;100.00;99163.00;1762912;80;21188;-76
2022/02/02 17:33:11;;;;;;;60.90;24.75;;;;;;;2.52;100.00;99160.64;1783659;80;21264;-76
2022/02/02 17:36:23;;;;;;;39.88;18.37;;;;;;;2.53;100.00;99169.58;1782693;80;21287;-86
2022/02/02 17:39:32;;;;;;;30.68;16.27;;;;;;;2.47;100.00;99168.85;1782130;80;21816;-86
2022/02/02 17:42:59;;;;;;;32.10;17.00;;;;;;;2.40;100.00;99167.27;1782645;80;21365;-87
2022/02/02 18:19:05;;;;;;;17.07;10.60;;;;;;;1.86;100.00;99162.73;1745749;82;21300;-75
2022/02/02 18:22:10;;;;;;;16.05;10.50;;;;;;;1.84;100.00;99171.48;1744904;82;21323;-76
2022/02/02 18:25:39;;;;;;;18.27;11.70;;;;;;;1.84;100.00;99170.14;1745795;82;21320;-76
2022/02/02 18:28:52;;;;;;;15.65;9.98;;;;;;;1.86;100.00;99169.47;1745582;80;21163;-76
2022/02/02 18:32:16;;;;;;;17.57;11.83;;;;;;;1.87;100.00;99172.52;1744606;80;21149;-80
2022/02/02 18:35:17;;;;;;;19.17;11.10;;;;;;;1.89;100.00;99174.58;1746407;82;21514;-85
2022/02/02 18:58:00;;;;;;;25.72;15.78;;;;;;;1.96;100.00;99158.98;1738199;80;21228;-76
2022/02/02 19:04:31;;;;;;;48.28;24.43;;;;;;;2.03;100.00;99157.41;1704005;83;21330;-85
2022/02/02 20:04:48;;;;;;;17.70;11.65;;;;;;;2.21;98.23;99168.72;1770349;80;21369;-76
2022/02/02 20:11:03;;;;;;;18.75;11.73;;;;;;;2.15;98.18;99174.72;1716694;81;21229;-85
2022/02/02 20:14:08;;;;;;;22.60;12.15;;;;;;;2.15;98.38;99185.02;1764067;81;21299;-76
2022/02/02 20:17:16;;;;;;;23.32;11.78;;;;;;;2.17;98.45;99188.42;1748486;81;21351;-77
2022/02/02 20:20:23;;;;;;;15.93;9.98;;;;;;;2.19;98.36;99184.22;1744602;82;21158;-77
2022/02/02 20:23:29;;;;;;;18.70;12.05;;;;;;;2.21;98.29;99184.43;1744614;82;21818;-85
2022/02/02 20:26:37;;;;;;;20.90;12.88;;;;;;;2.21;98.16;99181.73;1744273;82;21324;-76
2022/02/02 20:29:42;;;;;;;25.25;14.50;;;;;;;2.21;98.14;99183.08;1752747;81;21869;-76
2022/02/02 20:32:49;;;;;;;28.42;16.45;;;;;;;2.20;97.82;99187.26;1762781;81;21880;-76
2022/02/02 20:35:55;;;;;;;23.35;14.50;;;;;;;2.17;97.79;99191.13;1763637;81;21853;-75
2022/02/02 20:39:01;;;;;;;25.12;13.43;;;;;;;2.18;97.87;99186.58;1763337;81;21346;-75
2022/02/02 20:42:09;;;;;;;25.82;15.63;;;;;;;2.16;97.97;99188.55;1762200;81;21769;-76
2022/02/02 21:08:36;;;;;;;31.35;18.32;;;;;;;1.96;98.42;99187.80;1763720;81;21177;-86
2022/02/02 21:14:51;;;;;;;35.33;17.27;;;;;;;2.02;98.75;99182.69;1686329;81;21180;-86
2022/02/02 21:17:58;;;;;;;39.60;23.67;;;;;;;2.03;98.69;99182.18;1746500;82;21741;-76
2022/02/02 21:21:14;;;;;;;47.60;25.32;;;;;;;2.01;98.82;99184.16;1747876;82;21864;-86
2022/02/02 21:27:26;;;;;;;56.55;30.85;;;;;;;2.02;98.95;99206.08;1747021;82;21200;-80
2022/02/02 21:30:31;;;;;;;47.53;26.97;;;;;;;2.07;99.06;99221.34;1749666;81;21288;-85
2022/02/02 21:33:38;;;;;;;60.83;29.45;;;;;;;2.05;98.87;99221.98;1759180;81;21330;-85
2022/02/02 21:36:43;;;;;;;63.83;30.40;;;;;;;2.01;98.75;99221.92;1762639;81;21734;-85
2022/02/02 21:40:05;;;;;;;53.90;28.87;;;;;;;1.97;98.84;99220.01;1761979;81;21307;-74
2022/02/02 21:42:56;;;;;;;58.63;30.00;;;;;;;1.98;99.20;99224.94;1763033;81;21853;-76
2022/02/02 21:46:02;;;;;;;61.33;31.12;;;;;;;2.00;99.36;99224.27;1761428;81;22278;-86
2022/02/02 21:49:14;;;;;;;56.45;29.85;;;;;;;1.96;99.38;99224.22;1762256;81;21315;-76
2022/02/02 21:52:17;;;;;;;69.17;32.98;;;;;;;1.96;99.60;99229.61;1761677;81;21790;-75
2022/02/02 21:55:23;;;;;;;66.75;33.58;;;;;;;1.96;99.75;99229.11;1762816;81;21327;-75
2022/02/02 21:58:29;;;;;;;43.52;25.60;;;;;;;1.92;99.79;99226.35;1761171;81;21901;-85
2022/02/02 22:01:35;;;;;;;50.65;28.83;;;;;;;1.96;100.00;99229.61;1761258;81;21303;-75
2022/02/02 22:04:41;;;;;;;53.40;28.65;;;;;;;1.96;100.00;99230.95;1760718;80;21339;-85
2022/02/02 22:07:50;;;;;;;52.93;27.48;;;;;;;1.98;100.00;99225.78;1772516;80;21341;-86
2022/02/02 22:10:56;;;;;;;49.23;26.82;;;;;;;1.97;99.95;99215.97;1784339;80;21188;-75
2022/02/02 22:14:12;;;;;;;53.90;26.35;;;;;;;1.98;99.98;99223.59;1784538;80;21694;-86
2022/02/02 22:17:10;;;;;;;54.67;28.80;;;;;;;1.94;99.83;99229.77;1746555;82;21303;-75
2022/02/02 22:20:18;;;;;;;45.10;25.57;;;;;;;1.88;99.86;99228.14;1746808;82;21300;-76
2022/02/02 22:23:24;;;;;;;60.70;34.48;;;;;;;1.81;100.00;99227.05;1729097;83;21338;-85
2022/02/02 22:26:29;;;;;;;65.10;32.50;;;;;;;1.75;100.00;99225.29;1728688;83;21362;-86
2022/02/02 22:29:35;;;;;;;43.00;25.82;;;;;;;1.78;100.00;99223.63;1721074;83;21185;-86
2022/02/02 22:32:41;;;;;;;40.92;24.60;;;;;;;1.79;100.00;99232.59;1709313;84;21221;-76
2022/02/02 22:35:47;;;;;;;32.15;20.08;;;;;;;1.84;100.00;99238.39;1711478;84;21327;-76
2022/02/02 22:38:53;;;;;;;30.85;20.15;;;;;;;1.92;100.00;99233.09;1711528;84;21296;-75
2022/02/02 22:42:00;;;;;;;32.33;21.05;;;;;;;2.00;100.00;99229.67;1715667;83;22263;-86
2022/02/02 22:45:08;;;;;;;34.18;20.92;;;;;;;1.99;100.00;99226.63;1734702;82;21268;-85
2022/02/02 22:48:19;;;;;;;33.28;21.50;;;;;;;1.99;100.00;99226.13;1747505;82;21330;-74
2022/02/02 22:51:23;;;;;;;41.28;23.83;;;;;;;2.01;100.00;99228.66;1746217;82;21343;-74
2022/02/02 22:54:27;;;;;;;40.03;23.18;;;;;;;2.01;100.00;99245.69;1747478;82;21279;-76
2022/02/02 22:57:33;;;;;;;39.63;24.30;;;;;;;2.04;100.00;99249.45;1746440;82;21746;-75
2022/02/02 23:00:42;;;;;;;44.23;27.20;;;;;;;2.09;100.00;99262.50;1746757;82;21320;-76
2022/02/02 23:38:06;;;;;;;27.55;19.17;;;;;;;2.36;99.13;99283.27;1791014;79;28154;-78
2022/02/02 23:44:34;;;;;;;24.50;15.10;;;;;;;2.41;98.17;99289.07;1734716;82;21718;-78
2022/02/02 23:47:43;;;;;;;21.97;14.80;;;;;;;2.39;97.96;99283.45;1732082;83;21314;-79
2022/02/02 23:50:50;;;;;;;21.48;15.23;;;;;;;2.27;97.81;99282.81;1732671;81;21234;-79
2022/02/02 23:53:56;;;;;;;20.75;14.75;;;;;;;2.18;98.04;99279.16;1732398;83;21852;-79
2022/02/02 23:57:08;;;;;;;20.10;14.05;;;;;;;2.10;98.05;99276.33;1731334;83;21790;-79
